Latest Weather Observations for Forbes

IDN60801

Issued at 9:42 pm EDT Monday 10 December 2018 (issued every 10 minutes, with the page automatically refreshed every 10 minutes)

About weather observations | Map of weather stations | Latest weather observations for NSW | Other Formats
Station Details ID: 065103 Name: FORBES AIRPORT AWS Lat: -33.36 Lon: 147.92 Height: 230.4 m
Data from the previous 72 hours. | See also: Recent months at Forbes
Date/Time
EDT
Temp
°C
App
Temp
°C
Dew
Point
°C
Rel
Hum
%
Delta-T
°C
Wind Press
QNH
hPa
Press
MSL
hPa
Rain since
9am
mm
Dir  Spd
km/h
Gust
km/h
Spd
kts
Gust
kts
10/09:30pm 24.3 25.9 16.0 60 5.1 WSW 2 6 1 3 1015.5 1014.4 0.0
10/09:00pm 24.8 26.3 14.6 53 6.1 CALM 0 0 0 0 1014.9 1013.8 0.0
10/08:30pm 25.0 26.1 13.5 48 6.8 CALM 0 4 0 2 1015.1 1014.0 0.0
10/08:00pm 25.5 25.1 14.0 49 6.9 N 9 11 5 6 1014.5 1013.4 0.0
10/07:30pm 26.0 27.6 14.8 50 6.8 CALM 0 0 0 0 1014.5 1013.4 0.0
10/07:00pm 26.7 28.5 15.4 50 6.9 CALM 0 0 0 0 1013.9 1012.8 0.0
10/06:30pm 26.9 28.2 14.0 45 7.7 CALM 0 0 0 0 1013.5 1012.4 0.0
10/06:00pm 26.9 26.7 13.6 44 7.9 SSW 7 13 4 7 1013.5 1012.4 0.0
10/05:30pm 27.2 27.8 14.2 44 7.8 NNW 4 7 2 4 1013.1 1012.1 0.0
10/05:00pm 27.8 26.0 12.2 38 9.1 W 13 15 7 8 1014.1 1013.0 0.0
10/04:30pm 28.2 27.7 12.1 37 9.4 SW 6 7 3 4 1013.9 1012.8 0.0
10/04:00pm 28.6 29.3 12.1 36 9.7 CALM 0 0 0 0 1013.5 1012.4 0.0
10/03:30pm 28.8 28.1 11.4 34 10.1 WSW 6 11 3 6 1014.3 1013.2 0.0
10/03:00pm 29.1 26.8 10.3 31 10.7 WSW 13 20 7 11 1014.7 1013.6 0.0
10/02:30pm 30.3 29.5 11.8 32 10.9 NNE 7 13 4 7 1014.6 1013.5 0.0
10/02:00pm 29.6 27.9 12.5 35 10.1 ENE 13 19 7 10 1014.4 1013.3 0.0
10/01:30pm 29.9 27.1 11.4 32 10.8 ENE 17 22 9 12 1014.4 1013.3 0.0
10/01:00pm 29.9 27.5 11.4 32 10.8 E 15 20 8 11 1014.7 1013.6 0.0
10/12:30pm 30.1 28.1 11.6 32 10.8 ESE 13 24 7 13 1015.1 1014.0 0.0
10/12:00pm 30.7 27.3 11.1 30 11.4 E 20 26 11 14 1014.9 1013.8 0.0
10/11:30am 30.1 26.8 11.6 32 10.8 ENE 20 32 11 17 1014.8 1013.7 0.0
10/11:00am 29.1 25.2 12.1 35 10.0 ENE 24 37 13 20 1015.1 1014.0 0.0
10/10:30am 27.7 24.7 13.6 42 8.4 ENE 22 30 12 16 1015.1 1014.0 0.0
10/10:00am 26.2 24.1 13.7 46 7.4 E 17 26 9 14 1015.0 1013.9 0.0
10/09:30am 25.6 23.0 13.8 48 7.0 E 20 30 11 16 1015.3 1014.2 0.0
10/09:00am 25.3 22.3 13.8 49 6.8 E 22 33 12 18 1015.2 1014.1 0.0
10/08:30am 25.3 21.9 13.8 49 6.8 E 24 37 13 20 1015.0 1013.9 0.0
10/08:00am 24.9 21.5 13.8 50 6.6 ESE 24 37 13 20 1015.0 1013.9 0.0
10/07:30am 24.6 22.0 13.8 51 6.4 ESE 20 28 11 15 1014.9 1013.8 0.0
10/07:00am 24.1 21.4 13.6 52 6.2 ESE 20 30 11 16 1014.8 1013.7 0.0
10/06:30am 24.0 20.3 13.8 53 6.0 SE 26 37 14 20 1014.6 1013.5 0.0
10/06:00am 23.7 19.3 14.1 55 5.7 SSE 30 41 16 22 1014.5 1013.4 0.0
10/05:42am 23.6 19.5 13.8 54 5.8 SSE 28 46 15 25 1014.1 1013.0 0.0
10/05:30am 23.7 19.3 14.1 55 5.7 SSE 30 43 16 23 1014.0 1012.9 0.0
10/05:00am 23.8 20.6 14.2 55 5.7 SSE 24 32 13 17 1013.6 1012.5 0.0
10/04:30am 23.9 22.6 13.7 53 6.0 S 13 19 7 10 1012.7 1011.7 0.0
10/04:00am 24.5 23.2 13.7 51 6.4 S 13 19 7 10 1012.4 1011.4 0.0
10/03:30am 24.2 23.5 13.1 50 6.5 S 9 15 5 8 1012.1 1011.1 0.0
10/03:00am 22.7 23.1 11.4 49 6.4 CALM 0 0 0 0 1011.8 1010.7 0.0
10/02:30am 22.7 22.1 11.7 49 6.2 SW 6 7 3 4 1011.9 1010.9 0.0
10/02:00am 24.9 25.4 11.5 43 7.7 CALM 0 0 0 0 1012.1 1011.1 0.0
10/01:30am 25.9 24.6 11.3 40 8.4 SSW 9 11 5 6 1012.3 1011.3 0.0
10/01:00am 27.4 26.5 9.3 32 10.1 S 4 9 2 5 1012.4 1011.4 0.0
10/12:30am 28.2 25.5 7.4 27 11.3 SW 11 28 6 15 1012.5 1011.5 0.0
10/12:00am 25.9 23.8 8.4 33 9.5 NNE 9 11 5 6 1012.2 1011.2 0.0
 
Date/Time
EDT
Temp
°C
App
Temp
°C
Dew
Point
°C
Rel
Hum
%
Delta-T
°C
Wind Press
QNH
hPa
Press
MSL
hPa
Rain since
9am
mm
Dir  Spd
km/h
Gust
km/h
Spd
kts
Gust
kts
09/11:30pm 25.7 24.1 8.7 34 9.3 N 7 9 4 5 1012.7 1011.7 0.0
09/11:00pm 26.2 23.3 8.2 32 9.8 N 13 13 7 7 1012.5 1011.5 0.0
09/10:30pm 26.9 24.1 8.4 31 10.1 NNE 13 15 7 8 1012.5 1011.5 0.0
09/10:00pm 27.4 24.4 7.8 29 10.7 NNE 13 15 7 8 1012.6 1011.6 0.0
09/09:30pm 27.4 24.5 8.3 30 10.5 NNE 13 13 7 7 1012.7 1011.7 0.0
09/09:00pm 27.5 24.9 7.9 29 10.7 NNE 11 13 6 7 1012.5 1011.5 0.0
09/08:30pm 29.3 27.1 7.8 26 11.8 NNE 9 9 5 5 1012.5 1011.5 0.0
09/08:00pm 30.4 27.8 6.3 22 13.0 N 9 11 5 6 1012.4 1011.4 0.0
09/07:30pm 32.2 29.5 5.7 19 14.3 N 9 9 5 5 1012.4 1011.4 0.0
09/07:00pm 34.0 30.7 4.6 16 15.7 N 11 15 6 8 1012.4 1011.4 0.0
09/06:30pm 35.2 31.5 4.7 15 16.4 NNW 13 22 7 12 1012.3 1011.3 0.0
09/06:00pm 35.3 32.4 4.8 15 16.5 NW 9 19 5 10 1012.3 1011.3 0.0
09/05:30pm 35.2 32.9 4.7 15 16.4 W 6 17 3 9 1012.4 1011.4 0.0
09/05:00pm 34.9 32.2 3.5 14 16.6 WNW 7 13 4 7 1012.7 1011.7 0.0
09/04:30pm 35.3 33.6 3.8 14 16.7 WNW 2 6 1 3 1012.8 1011.8 0.0
09/04:00pm 35.4 32.9 4.8 15 16.5 NW 7 13 4 7 1013.1 1012.1 0.0
09/03:30pm 35.6 32.8 5.0 15 16.6 W 9 19 5 10 1013.4 1012.3 0.0
09/03:00pm 34.9 32.0 4.4 15 16.3 NE 9 20 5 11 1014.0 1012.9 0.0
09/02:30pm 35.2 31.7 3.7 14 16.7 N 11 28 6 15 1014.4 1013.3 0.0
09/02:00pm 34.3 31.8 4.9 16 15.8 NNW 7 19 4 10 1014.8 1013.7 0.0
09/01:30pm 34.1 31.2 4.7 16 15.7 NNW 9 17 5 9 1015.4 1014.3 0.0
09/01:00pm 34.1 31.9 6.4 18 15.2 N 7 17 4 9 1015.9 1014.9 0.0
09/12:30pm 33.4 30.9 6.6 19 14.7 NW 9 17 5 9 1016.4 1015.4 0.0
09/12:00pm 32.8 30.4 6.9 20 14.2 W 9 17 5 9 1016.9 1015.9 0.0
09/11:30am 31.9 29.9 6.9 21 13.7 W 7 15 4 8 1017.1 1016.1 0.0
09/11:00am 31.0 28.2 6.8 22 13.2 NNW 11 20 6 11 1017.3 1016.3 0.0
09/10:30am 30.4 27.2 7.0 23 12.7 NNW 13 22 7 12 1017.4 1016.4 0.0
09/10:00am 30.3 26.6 8.1 25 12.3 N 17 26 9 14 1017.5 1016.5 0.0
09/09:30am 29.2 26.1 8.8 28 11.4 NNE 15 20 8 11 1017.7 1016.7 0.0
09/09:00am 27.9 26.7 9.7 32 10.2 NNE 6 9 3 5 1017.4 1016.4 0.0
09/08:30am 25.7 24.8 9.1 35 9.1 NNE 4 7 2 4 1017.3 1016.3 0.0
09/08:00am 24.5 23.4 10.0 40 8.0 NNE 6 9 3 5 1017.1 1016.1 0.0
09/07:30am 22.0 21.2 11.7 52 5.8 E 7 11 4 6 1017.0 1016.0 0.0
09/07:00am 18.1 18.7 11.9 67 3.4 CALM 0 0 0 0 1017.1 1016.1 0.0
09/06:30am 18.2 18.5 10.8 62 4.0 CALM 0 0 0 0 1016.6 1015.6 0.0
09/06:00am 17.7 18.0 11.0 65 3.7 CALM 0 0 0 0 1016.2 1015.2 0.0
09/05:30am 17.5 17.5 9.7 60 4.1 CALM 0 0 0 0 1015.9 1014.9 0.0
09/05:00am 18.4 17.4 10.3 59 4.4 N 6 9 3 5 1015.8 1014.8 0.0
09/04:30am 17.4 17.5 10.3 63 3.8 CALM 0 4 0 2 1015.6 1014.5 0.0
09/04:00am 18.9 17.2 9.9 56 4.8 NNE 9 13 5 7 1015.2 1014.1 0.0
09/03:30am 19.5 18.6 10.5 56 4.9 NNE 6 7 3 4 1015.4 1014.3 0.0
09/03:00am 18.8 19.0 10.4 58 4.6 CALM 0 0 0 0 1015.3 1014.2 0.0
09/02:30am 19.2 19.5 11.0 59 4.5 CALM 0 2 0 1 1015.5 1014.4 0.0
09/02:00am 20.7 20.3 9.6 49 6.0 NE 2 6 1 3 1015.7 1014.6 0.0
09/01:30am 20.0 18.6 9.6 51 5.6 NE 7 9 4 5 1015.9 1014.9 0.0
09/01:00am 21.3 19.9 9.5 47 6.4 NNE 7 9 4 5 1016.0 1015.0 0.0
09/12:30am 21.1 21.2 10.3 50 5.9 CALM 0 0 0 0 1016.1 1015.1 0.0
09/12:00am 22.5 22.0 9.3 43 7.2 ENE 2 6 1 3 1016.4 1015.4 0.0
 
Date/Time
EDT
Temp
°C
App
Temp
°C
Dew
Point
°C
Rel
Hum
%
Delta-T
°C
Wind Press
QNH
hPa
Press
MSL
hPa
Rain since
9am
mm
Dir  Spd
km/h
Gust
km/h
Spd
kts
Gust
kts
08/11:30pm 22.1 21.1 8.9 43 7.1 ENE 4 6 2 3 1016.8 1015.8 0.0
08/11:00pm 23.4 22.5 7.9 37 8.2 NE 2 6 1 3 1016.8 1015.8 0.0
08/10:30pm 24.4 23.9 8.0 35 8.8 CALM 0 4 0 2 1016.7 1015.7 0.0
08/10:00pm 24.1 23.8 8.5 37 8.4 CALM 0 0 0 0 1016.5 1015.5 0.0
08/09:30pm 24.3 24.2 9.5 39 8.1 CALM 0 0 0 0 1016.3 1015.3 0.0
08/09:00pm 26.5 25.9 7.5 30 10.2 CALM 0 0 0 0 1016.2 1015.2 0.0
08/08:30pm 28.2 27.9 8.5 29 10.9 CALM 0 0 0 0 1016.2 1015.2 0.0
08/08:00pm 31.2 30.4 6.3 21 13.5 CALM 0 4 0 2 1015.9 1014.9 0.0
08/07:30pm 32.0 30.0 7.0 21 13.7 NNE 7 11 4 6 1015.7 1014.6 0.0
08/07:00pm 32.9 31.3 6.2 19 14.5 NE 4 9 2 5 1015.6 1014.5 0.0
08/06:30pm 32.9 30.6 5.5 18 14.8 NNE 7 13 4 7 1015.5 1014.4 0.0
08/06:00pm 33.0 30.7 5.5 18 14.8 NNE 7 15 4 8 1015.4 1014.3 0.0
08/05:30pm 33.3 31.2 5.8 18 14.9 NNE 6 15 3 8 1015.4 1014.3 0.0
08/05:00pm 33.4 30.1 6.6 19 14.7 N 13 20 7 11 1015.7 1014.6 0.0
08/04:30pm 33.1 30.7 7.1 20 14.4 NE 9 19 5 10 1016.0 1015.0 0.0
08/04:00pm 33.2 31.1 6.5 19 14.6 NE 7 17 4 9 1016.5 1015.5 0.0
08/03:30pm 32.9 31.1 7.0 20 14.3 WSW 6 13 3 7 1016.7 1015.7 0.0
08/03:00pm 32.2 30.0 7.8 22 13.6 NW 9 17 5 9 1017.0 1016.0 0.0
08/02:30pm 32.0 28.2 7.6 22 13.5 N 17 26 9 14 1017.3 1016.3 0.0
08/02:00pm 32.1 29.6 9.6 25 12.9 NNE 13 22 7 12 1017.5 1016.5 0.0
08/01:30pm 31.5 29.4 9.7 26 12.5 N 11 20 6 11 1018.3 1017.2 0.0
08/01:00pm 31.0 27.9 10.4 28 11.9 NNW 17 28 9 15 1018.7 1017.6 0.0
08/12:30pm 29.5 27.4 9.6 29 11.3 NNW 11 20 6 11 1019.1 1018.0 0.0
08/12:00pm 30.0 27.3 10.5 30 11.2 NNW 15 24 8 13 1019.4 1018.3 0.0
08/11:30am 29.3 25.9 10.4 31 10.8 NNW 19 30 10 16 1019.8 1018.8 0.0
08/11:00am 29.0 25.4 10.6 32 10.5 NNW 20 28 11 15 1019.8 1018.8 0.0
08/10:30am 27.6 23.2 10.3 34 9.8 N 24 32 13 17 1019.8 1018.8 0.0
08/10:00am 26.7 21.9 10.4 36 9.2 N 26 35 14 19 1019.8 1018.8 0.0
08/09:30am 25.9 20.8 10.5 38 8.7 N 28 37 15 20 1020.0 1019.0 0.0
08/09:00am 25.3 20.1 10.4 39 8.4 N 28 33 15 18 1019.9 1018.9 0.0
08/08:30am 25.0 18.5 10.5 40 8.1 N 35 43 19 23 1019.6 1018.6 0.0
08/08:00am 24.3 17.8 10.2 41 7.8 N 35 48 19 26 1019.3 1018.2 0.0
08/07:30am 24.4 18.6 10.7 42 7.7 N 32 43 17 23 1018.9 1017.8 0.0
08/07:00am 23.0 18.9 10.1 44 7.1 N 22 30 12 16 1018.7 1017.6 0.0
08/06:30am 21.2 18.5 9.1 46 6.5 NNE 13 17 7 9 1018.3 1017.2 0.0
08/06:00am 18.3 17.5 8.3 52 5.2 NNE 2 6 1 3 1017.9 1016.8 0.0
08/05:30am 18.3 16.1 7.7 50 5.5 NE 9 9 5 5 1017.3 1016.3 0.0
08/05:00am 18.3 16.5 7.1 48 5.7 NNE 6 7 3 4 1017.1 1016.1 0.0
08/04:30am 18.8 17.3 6.6 45 6.2 NE 4 7 2 4 1016.7 1015.7 0.0
08/04:00am 20.1 18.1 6.1 40 7.1 NE 6 11 3 6 1016.4 1015.4 0.0
08/03:30am 19.4 17.2 6.2 42 6.6 NNE 7 9 4 5 1016.5 1015.5 0.0
08/03:00am 19.8 17.1 5.8 40 7.0 N 9 13 5 7 1016.6 1015.6 0.0
08/02:30am 21.2 17.5 6.3 38 7.6 NNE 15 19 8 10 1016.8 1015.8 0.0
08/02:00am 21.7 17.7 6.8 38 7.7 NNE 17 20 9 11 1017.0 1016.0 0.0
08/01:30am 19.5 17.1 8.8 50 5.7 NNE 11 13 6 7 1017.3 1016.3 0.0
08/01:00am 20.1 18.1 8.8 48 6.0 NNE 9 11 5 6 1017.5 1016.5 0.0
08/12:30am 20.7 18.4 9.0 47 6.3 NNE 11 13 6 7 1017.6 1016.6 0.0
08/12:00am 22.2 20.6 8.7 42 7.2 NNE 7 7 4 4 1017.7 1016.7 0.0
 
Date/Time
EDT
Temp
°C
App
Temp
°C
Dew
Point
°C
Rel
Hum
%
Delta-T
°C
Wind Press
QNH
hPa
Press
MSL
hPa
Rain since
9am
mm
Dir  Spd
km/h
Gust
km/h
Spd
kts
Gust
kts
07/11:30pm 22.7 21.2 8.4 40 7.7 N 6 9 3 5 1017.7 1016.7 0.0
07/11:00pm 23.7 23.1 10.4 43 7.4 NNW 4 4 2 2 1018.0 1016.9 0.0
07/10:30pm 23.8 23.8 11.2 45 7.1 WNW 2 4 1 2 1017.7 1016.7 0.0
07/10:00pm 23.9 24.4 11.6 46 7.0 CALM 0 0 0 0 1017.6 1016.6 0.0

Other Formats:

Comma delimited format used in spreadsheet applications
http://www.bom.gov.au/fwo/IDN60801/IDN60801.94715.axf

JavaScript Object Notation format (JSON) in row-major order
http://www.bom.gov.au/fwo/IDN60801/IDN60801.94715.json